sensor_id;sensor_type;location;lat;lon;timestamp;temperature;humidity
13721;DHT22;6932;51.438;5.470;2023-05-14T06:47:54;24.40;70.10
13721;DHT22;6932;51.438;5.470;2023-05-14T06:50:20;24.40;70.20
13721;DHT22;6932;51.438;5.470;2023-05-14T06:52:45;24.50;68.50
13721;DHT22;6932;51.438;5.470;2023-05-14T06:55:11;24.90;67.90
13721;DHT22;6932;51.438;5.470;2023-05-14T06:57:37;25.20;66.70
13721;DHT22;6932;51.438;5.470;2023-05-14T07:00:04;25.30;66.10
13721;DHT22;6932;51.438;5.470;2023-05-14T07:02:30;25.40;65.70
13721;DHT22;6932;51.438;5.470;2023-05-14T07:08:37;25.20;65.70
13721;DHT22;6932;51.438;5.470;2023-05-14T07:11:03;25.20;66.00
13721;DHT22;6932;51.438;5.470;2023-05-14T07:13:29;25.00;66.10
13721;DHT22;6932;51.438;5.470;2023-05-14T07:15:54;25.00;66.30
13721;DHT22;6932;51.438;5.470;2023-05-14T07:18:21;24.90;66.20
13721;DHT22;6932;51.438;5.470;2023-05-14T07:20:47;24.90;67.00
13721;DHT22;6932;51.438;5.470;2023-05-14T07:23:13;24.80;66.70
13721;DHT22;6932;51.438;5.470;2023-05-14T07:29:19;24.70;66.60
13721;DHT22;6932;51.438;5.470;2023-05-14T07:31:45;24.70;67.20
13721;DHT22;6932;51.438;5.470;2023-05-14T07:34:11;24.70;67.20
13721;DHT22;6932;51.438;5.470;2023-05-14T07:36:37;24.70;67.00
13721;DHT22;6932;51.438;5.470;2023-05-14T07:39:03;24.70;67.10
13721;DHT22;6932;51.438;5.470;2023-05-14T07:41:28;24.70;67.10
13721;DHT22;6932;51.438;5.470;2023-05-14T07:43:54;24.70;67.00
13721;DHT22;6932;51.438;5.470;2023-05-14T07:46:20;24.70;66.90
13721;DHT22;6932;51.438;5.470;2023-05-14T07:48:46;24.70;66.90
13721;DHT22;6932;51.438;5.470;2023-05-14T07:51:12;24.60;66.80
13721;DHT22;6932;51.438;5.470;2023-05-14T07:53:37;24.60;66.60
13721;DHT22;6932;51.438;5.470;2023-05-14T07:56:03;24.70;66.70
13721;DHT22;6932;51.438;5.470;2023-05-14T07:58:29;24.60;66.40
13721;DHT22;6932;51.438;5.470;2023-05-14T08:04:37;24.50;66.90
13721;DHT22;6932;51.438;5.470;2023-05-14T08:07:03;24.50;67.20
13721;DHT22;6932;51.438;5.470;2023-05-14T08:09:29;24.50;67.60
13721;DHT22;6932;51.438;5.470;2023-05-14T08:11:55;24.40;67.60
13721;DHT22;6932;51.438;5.470;2023-05-14T08:14:21;24.50;67.60
13721;DHT22;6932;51.438;5.470;2023-05-14T08:16:46;24.50;67.60
13721;DHT22;6932;51.438;5.470;2023-05-14T08:19:13;24.50;67.50
13721;DHT22;6932;51.438;5.470;2023-05-14T08:21:39;24.50;67.50
13721;DHT22;6932;51.438;5.470;2023-05-14T08:24:05;24.60;67.30
13721;DHT22;6932;51.438;5.470;2023-05-14T08:26:31;24.60;66.70
13721;DHT22;6932;51.438;5.470;2023-05-14T08:28:56;24.70;66.20
13721;DHT22;6932;51.438;5.470;2023-05-14T08:31:22;24.80;66.40
13721;DHT22;6932;51.438;5.470;2023-05-14T08:33:48;24.90;67.00
13721;DHT22;6932;51.438;5.470;2023-05-14T08:36:13;25.00;66.30
13721;DHT22;6932;51.438;5.470;2023-05-14T08:38:39;25.10;66.10
13721;DHT22;6932;51.438;5.470;2023-05-14T08:41:07;25.20;65.70
13721;DHT22;6932;51.438;5.470;2023-05-14T08:46:44;25.40;65.00
13721;DHT22;6932;51.438;5.470;2023-05-14T08:52:10;25.50;65.30
13721;DHT22;6932;51.438;5.470;2023-05-14T08:54:37;25.50;65.10
13721;DHT22;6932;51.438;5.470;2023-05-14T08:57:04;25.50;65.00
13721;DHT22;6932;51.438;5.470;2023-05-14T08:59:33;25.50;65.00
13721;DHT22;6932;51.438;5.470;2023-05-14T09:02:01;25.50;65.20
13721;DHT22;6932;51.438;5.470;2023-05-14T09:04:30;25.60;64.80
13721;DHT22;6932;51.438;5.470;2023-05-14T09:06:59;25.60;64.60
13721;DHT22;6932;51.438;5.470;2023-05-14T09:09:26;25.70;64.50
13721;DHT22;6932;51.438;5.470;2023-05-14T09:11:53;25.80;63.30
13721;DHT22;6932;51.438;5.470;2023-05-14T09:14:19;25.90;63.10
13721;DHT22;6932;51.438;5.470;2023-05-14T09:16:48;26.10;62.60
13721;DHT22;6932;51.438;5.470;2023-05-14T09:19:15;26.20;62.10
13721;DHT22;6932;51.438;5.470;2023-05-14T09:21:44;26.30;62.10
13721;DHT22;6932;51.438;5.470;2023-05-14T09:24:22;26.50;60.70
13721;DHT22;6932;51.438;5.470;2023-05-14T09:26:52;26.60;60.60
13721;DHT22;6932;51.438;5.470;2023-05-14T09:29:20;26.80;60.80
13721;DHT22;6932;51.438;5.470;2023-05-14T09:31:49;26.90;61.00
13721;DHT22;6932;51.438;5.470;2023-05-14T09:34:41;27.00;60.70
13721;DHT22;6932;51.438;5.470;2023-05-14T09:37:07;27.10;60.20
13721;DHT22;6932;51.438;5.470;2023-05-14T09:39:34;27.30;60.70
13721;DHT22;6932;51.438;5.470;2023-05-14T09:42:02;27.40;59.90
13721;DHT22;6932;51.438;5.470;2023-05-14T09:44:28;27.50;59.30
13721;DHT22;6932;51.438;5.470;2023-05-14T09:46:54;27.60;58.20
13721;DHT22;6932;51.438;5.470;2023-05-14T09:49:20;27.60;58.40
13721;DHT22;6932;51.438;5.470;2023-05-14T09:51:49;27.70;58.30
13721;DHT22;6932;51.438;5.470;2023-05-14T09:54:15;27.70;58.80
13721;DHT22;6932;51.438;5.470;2023-05-14T09:56:42;27.70;58.30
13721;DHT22;6932;51.438;5.470;2023-05-14T09:59:09;27.80;58.40
13721;DHT22;6932;51.438;5.470;2023-05-14T10:01:36;27.80;58.90
13721;DHT22;6932;51.438;5.470;2023-05-14T10:04:05;27.80;58.80
13721;DHT22;6932;51.438;5.470;2023-05-14T10:06:37;27.80;59.20
13721;DHT22;6932;51.438;5.470;2023-05-14T10:09:12;27.90;59.20
13721;DHT22;6932;51.438;5.470;2023-05-14T10:11:42;27.90;58.40
13721;DHT22;6932;51.438;5.470;2023-05-14T10:14:28;27.90;57.90
13721;DHT22;6932;51.438;5.470;2023-05-14T10:17:00;28.00;58.30
13721;DHT22;6932;51.438;5.470;2023-05-14T10:19:32;28.10;58.40
13721;DHT22;6932;51.438;5.470;2023-05-14T10:22:04;28.10;58.30
13721;DHT22;6932;51.438;5.470;2023-05-14T10:24:32;28.10;58.90
13721;DHT22;6932;51.438;5.470;2023-05-14T10:26:58;28.20;58.50
13721;DHT22;6932;51.438;5.470;2023-05-14T10:29:36;28.20;59.00
13721;DHT22;6932;51.438;5.470;2023-05-14T10:32:06;28.20;58.90
13721;DHT22;6932;51.438;5.470;2023-05-14T10:34:37;28.30;58.60
13721;DHT22;6932;51.438;5.470;2023-05-14T10:37:08;28.30;58.10
13721;DHT22;6932;51.438;5.470;2023-05-14T10:39:41;28.40;57.60
13721;DHT22;6932;51.438;5.470;2023-05-14T10:42:11;28.40;57.60
13721;DHT22;6932;51.438;5.470;2023-05-14T10:47:30;28.40;56.30
13721;DHT22;6932;51.438;5.470;2023-05-14T10:49:57;28.50;54.50
13721;DHT22;6932;51.438;5.470;2023-05-14T10:52:28;28.50;54.90
13721;DHT22;6932;51.438;5.470;2023-05-14T10:54:56;28.40;55.50
13721;DHT22;6932;51.438;5.470;2023-05-14T10:57:26;28.40;56.10
13721;DHT22;6932;51.438;5.470;2023-05-14T10:59:55;28.40;55.50
13721;DHT22;6932;51.438;5.470;2023-05-14T11:02:31;28.40;55.10
13721;DHT22;6932;51.438;5.470;2023-05-14T11:05:06;28.40;54.60
13721;DHT22;6932;51.438;5.470;2023-05-14T11:07:36;28.40;54.40
13721;DHT22;6932;51.438;5.470;2023-05-14T11:28:37;28.50;56.20
13721;DHT22;6932;51.438;5.470;2023-05-14T11:31:03;28.60;56.50
13721;DHT22;6932;51.438;5.470;2023-05-14T11:33:30;28.60;56.80
13721;DHT22;6932;51.438;5.470;2023-05-14T11:35:56;28.70;56.80
13721;DHT22;6932;51.438;5.470;2023-05-14T11:38:22;28.70;57.00
13721;DHT22;6932;51.438;5.470;2023-05-14T11:40:54;28.70;56.80
13721;DHT22;6932;51.438;5.470;2023-05-14T11:43:21;28.70;56.20
13721;DHT22;6932;51.438;5.470;2023-05-14T11:45:54;28.70;55.40
13721;DHT22;6932;51.438;5.470;2023-05-14T11:48:21;28.80;55.30
13721;DHT22;6932;51.438;5.470;2023-05-14T11:54:40;28.80;55.50
13721;DHT22;6932;51.438;5.470;2023-05-14T11:57:15;28.90;55.70
13721;DHT22;6932;51.438;5.470;2023-05-14T11:59:46;28.90;55.20
13721;DHT22;6932;51.438;5.470;2023-05-14T12:02:16;28.90;55.20
13721;DHT22;6932;51.438;5.470;2023-05-14T12:04:48;28.90;55.00
13721;DHT22;6932;51.438;5.470;2023-05-14T12:07:16;28.90;54.30
13721;DHT22;6932;51.438;5.470;2023-05-14T12:09:44;28.90;54.00
13721;DHT22;6932;51.438;5.470;2023-05-14T12:12:17;28.80;53.70
13721;DHT22;6932;51.438;5.470;2023-05-14T12:29:38;28.40;54.80
13721;DHT22;6932;51.438;5.470;2023-05-14T12:32:07;28.50;53.70
13721;DHT22;6932;51.438;5.470;2023-05-14T12:34:35;28.50;53.40
13721;DHT22;6932;51.438;5.470;2023-05-14T12:37:01;28.50;51.90
13721;DHT22;6932;51.438;5.470;2023-05-14T12:39:30;28.40;51.10
13721;DHT22;6932;51.438;5.470;2023-05-14T12:41:57;28.40;50.20
13721;DHT22;6932;51.438;5.470;2023-05-14T12:44:23;28.40;50.00
13721;DHT22;6932;51.438;5.470;2023-05-14T12:46:48;28.40;49.60
13721;DHT22;6932;51.438;5.470;2023-05-14T12:49:14;28.40;50.10
13721;DHT22;6932;51.438;5.470;2023-05-14T12:51:40;28.40;49.60
13721;DHT22;6932;51.438;5.470;2023-05-14T12:54:06;28.40;49.70
13721;DHT22;6932;51.438;5.470;2023-05-14T12:56:31;28.50;49.60
13721;DHT22;6932;51.438;5.470;2023-05-14T12:58:57;28.50;49.90
13721;DHT22;6932;51.438;5.470;2023-05-14T13:01:23;28.50;49.40
13721;DHT22;6932;51.438;5.470;2023-05-14T13:03:50;28.60;48.30
13721;DHT22;6932;51.438;5.470;2023-05-14T13:06:16;28.60;47.10
13721;DHT22;6932;51.438;5.470;2023-05-14T13:08:42;28.60;47.10
13721;DHT22;6932;51.438;5.470;2023-05-14T13:11:07;28.60;45.80
13721;DHT22;6932;51.438;5.470;2023-05-14T13:13:33;28.60;45.10
13721;DHT22;6932;51.438;5.470;2023-05-14T13:15:59;28.60;44.50
13721;DHT22;6932;51.438;5.470;2023-05-14T13:18:25;28.60;45.60
13721;DHT22;6932;51.438;5.470;2023-05-14T13:20:52;28.60;46.00
13721;DHT22;6932;51.438;5.470;2023-05-14T13:23:18;28.50;46.40
13721;DHT22;6932;51.438;5.470;2023-05-14T13:25:44;28.50;45.90
13721;DHT22;6932;51.438;5.470;2023-05-14T13:28:10;28.40;45.90
13721;DHT22;6932;51.438;5.470;2023-05-14T13:30:36;28.40;45.80
13721;DHT22;6932;51.438;5.470;2023-05-14T13:33:02;28.30;46.00
13721;DHT22;6932;51.438;5.470;2023-05-14T13:35:28;28.30;45.50
13721;DHT22;6932;51.438;5.470;2023-05-14T13:37:54;28.20;45.40
13721;DHT22;6932;51.438;5.470;2023-05-14T13:40:20;28.20;45.10
13721;DHT22;6932;51.438;5.470;2023-05-14T13:42:45;28.20;44.70
13721;DHT22;6932;51.438;5.470;2023-05-14T13:45:11;28.10;45.00
13721;DHT22;6932;51.438;5.470;2023-05-14T13:47:37;28.10;45.60
13721;DHT22;6932;51.438;5.470;2023-05-14T13:50:03;28.10;45.60
13721;DHT22;6932;51.438;5.470;2023-05-14T13:52:29;28.20;45.60
13721;DHT22;6932;51.438;5.470;2023-05-14T13:54:55;28.20;44.70
13721;DHT22;6932;51.438;5.470;2023-05-14T13:57:21;28.30;44.90
13721;DHT22;6932;51.438;5.470;2023-05-14T13:59:47;28.30;44.80
13721;DHT22;6932;51.438;5.470;2023-05-14T14:02:13;28.30;45.40
13721;DHT22;6932;51.438;5.470;2023-05-14T14:04:39;28.30;44.50
13721;DHT22;6932;51.438;5.470;2023-05-14T14:07:05;28.40;44.20
13721;DHT22;6932;51.438;5.470;2023-05-14T14:09:31;28.40;44.80
13721;DHT22;6932;51.438;5.470;2023-05-14T14:12:04;28.40;45.00
13721;DHT22;6932;51.438;5.470;2023-05-14T14:14:30;28.40;44.90
13721;DHT22;6932;51.438;5.470;2023-05-14T14:16:56;28.40;45.40
13721;DHT22;6932;51.438;5.470;2023-05-14T14:19:21;28.40;46.00
13721;DHT22;6932;51.438;5.470;2023-05-14T14:21:47;28.30;46.60
13721;DHT22;6932;51.438;5.470;2023-05-14T14:24:13;28.30;47.00
13721;DHT22;6932;51.438;5.470;2023-05-14T14:26:39;28.30;48.00
13721;DHT22;6932;51.438;5.470;2023-05-14T14:29:04;28.30;48.40
13721;DHT22;6932;51.438;5.470;2023-05-14T14:31:30;28.30;49.40
13721;DHT22;6932;51.438;5.470;2023-05-14T14:33:56;28.30;49.80
13721;DHT22;6932;51.438;5.470;2023-05-14T14:36:22;28.20;49.40
13721;DHT22;6932;51.438;5.470;2023-05-14T14:38:47;28.20;49.50
13721;DHT22;6932;51.438;5.470;2023-05-14T14:41:13;28.20;50.10
13721;DHT22;6932;51.438;5.470;2023-05-14T14:43:39;28.10;49.50
13721;DHT22;6932;51.438;5.470;2023-05-14T14:46:05;28.10;50.30
13721;DHT22;6932;51.438;5.470;2023-05-14T14:48:34;28.00;50.50
13721;DHT22;6932;51.438;5.470;2023-05-14T14:51:05;28.00;51.00
13721;DHT22;6932;51.438;5.470;2023-05-14T14:53:32;28.00;51.30
13721;DHT22;6932;51.438;5.470;2023-05-14T14:55:59;28.00;51.70
13721;DHT22;6932;51.438;5.470;2023-05-14T14:58:26;28.00;51.70
13721;DHT22;6932;51.438;5.470;2023-05-14T15:00:54;27.90;51.50
13721;DHT22;6932;51.438;5.470;2023-05-14T15:03:21;27.90;51.10
13721;DHT22;6932;51.438;5.470;2023-05-14T15:05:47;27.80;51.00
13721;DHT22;6932;51.438;5.470;2023-05-14T15:08:13;27.80;50.90
13721;DHT22;6932;51.438;5.470;2023-05-14T15:10:40;27.70;51.80
13721;DHT22;6932;51.438;5.470;2023-05-14T15:13:06;27.70;50.90
13721;DHT22;6932;51.438;5.470;2023-05-14T15:15:34;27.60;50.20
13721;DHT22;6932;51.438;5.470;2023-05-14T15:18:01;27.60;50.40
13721;DHT22;6932;51.438;5.470;2023-05-14T15:20:27;27.50;50.80
13721;DHT22;6932;51.438;5.470;2023-05-14T15:22:54;27.50;51.80
13721;DHT22;6932;51.438;5.470;2023-05-14T15:25:21;27.50;52.20
13721;DHT22;6932;51.438;5.470;2023-05-14T15:27:48;27.50;52.60
13721;DHT22;6932;51.438;5.470;2023-05-14T15:30:14;27.40;52.90
13721;DHT22;6932;51.438;5.470;2023-05-14T15:32:41;27.40;53.40
13721;DHT22;6932;51.438;5.470;2023-05-14T15:35:08;27.40;53.80
13721;DHT22;6932;51.438;5.470;2023-05-14T15:37:40;27.40;54.00
13721;DHT22;6932;51.438;5.470;2023-05-14T15:40:10;27.30;54.30
13721;DHT22;6932;51.438;5.470;2023-05-14T15:42:38;27.30;54.40
13721;DHT22;6932;51.438;5.470;2023-05-14T15:45:11;27.30;55.20
13721;DHT22;6932;51.438;5.470;2023-05-14T15:47:39;27.30;55.50
13721;DHT22;6932;51.438;5.470;2023-05-14T15:50:05;27.20;54.50
13721;DHT22;6932;51.438;5.470;2023-05-14T15:52:32;27.20;54.70
13721;DHT22;6932;51.438;5.470;2023-05-14T15:54:59;27.20;55.00
13721;DHT22;6932;51.438;5.470;2023-05-14T15:57:25;27.20;55.20
13721;DHT22;6932;51.438;5.470;2023-05-14T15:59:51;27.10;54.80
13721;DHT22;6932;51.438;5.470;2023-05-14T16:02:17;27.10;55.00
13721;DHT22;6932;51.438;5.470;2023-05-14T16:04:43;27.10;54.50
13721;DHT22;6932;51.438;5.470;2023-05-14T16:07:13;27.00;54.80
13721;DHT22;6932;51.438;5.470;2023-05-14T16:09:40;27.00;53.90
13721;DHT22;6932;51.438;5.470;2023-05-14T16:12:07;27.00;53.60
13721;DHT22;6932;51.438;5.470;2023-05-14T16:14:33;26.90;53.60
13721;DHT22;6932;51.438;5.470;2023-05-14T16:20:41;26.90;53.20
13721;DHT22;6932;51.438;5.470;2023-05-14T16:23:06;26.90;52.40
13721;DHT22;6932;51.438;5.470;2023-05-14T16:25:32;26.80;51.70
13721;DHT22;6932;51.438;5.470;2023-05-14T16:27:58;26.80;51.00
13721;DHT22;6932;51.438;5.470;2023-05-14T16:30:24;26.80;51.00
13721;DHT22;6932;51.438;5.470;2023-05-14T16:32:50;26.80;51.40
13721;DHT22;6932;51.438;5.470;2023-05-14T16:35:16;26.70;51.70
13721;DHT22;6932;51.438;5.470;2023-05-14T16:37:42;26.80;51.50
13721;DHT22;6932;51.438;5.470;2023-05-14T16:40:08;26.80;52.20
13721;DHT22;6932;51.438;5.470;2023-05-14T16:42:36;26.80;53.00
13721;DHT22;6932;51.438;5.470;2023-05-14T16:45:02;26.80;53.90
13721;DHT22;6932;51.438;5.470;2023-05-14T16:47:28;26.80;53.20
13721;DHT22;6932;51.438;5.470;2023-05-14T16:49:54;26.80;52.60
13721;DHT22;6932;51.438;5.470;2023-05-14T16:56:01;26.80;53.30
13721;DHT22;6932;51.438;5.470;2023-05-14T16:58:27;26.80;53.40
13721;DHT22;6932;51.438;5.470;2023-05-14T17:00:53;26.70;53.00
13721;DHT22;6932;51.438;5.470;2023-05-14T17:03:19;26.70;53.20
13721;DHT22;6932;51.438;5.470;2023-05-14T17:05:45;26.70;53.90
13721;DHT22;6932;51.438;5.470;2023-05-14T17:08:10;26.70;54.80
13721;DHT22;6932;51.438;5.470;2023-05-14T17:10:36;26.60;55.30
13721;DHT22;6932;51.438;5.470;2023-05-14T17:13:02;26.60;55.70
13721;DHT22;6932;51.438;5.470;2023-05-14T17:15:34;26.50;56.00
13721;DHT22;6932;51.438;5.470;2023-05-14T17:18:00;26.50;56.50
13721;DHT22;6932;51.438;5.470;2023-05-14T17:20:26;26.40;56.70
13721;DHT22;6932;51.438;5.470;2023-05-14T17:22:53;26.40;57.10
13721;DHT22;6932;51.438;5.470;2023-05-14T17:25:18;26.30;57.10
13721;DHT22;6932;51.438;5.470;2023-05-14T17:27:44;26.30;57.40
13721;DHT22;6932;51.438;5.470;2023-05-14T17:30:10;26.30;57.60
13721;DHT22;6932;51.438;5.470;2023-05-14T17:32:36;26.20;57.90
13721;DHT22;6932;51.438;5.470;2023-05-14T17:35:02;26.20;58.40
13721;DHT22;6932;51.438;5.470;2023-05-14T17:37:27;26.20;59.90
13721;DHT22;6932;51.438;5.470;2023-05-14T17:39:53;26.10;60.80
13721;DHT22;6932;51.438;5.470;2023-05-14T17:42:19;26.10;62.60
13721;DHT22;6932;51.438;5.470;2023-05-14T17:44:45;26.10;64.20
13721;DHT22;6932;51.438;5.470;2023-05-14T17:47:10;26.10;65.40
13721;DHT22;6932;51.438;5.470;2023-05-14T17:49:36;26.10;66.60
13721;DHT22;6932;51.438;5.470;2023-05-14T17:52:02;26.10;67.40
13721;DHT22;6932;51.438;5.470;2023-05-14T17:54:28;26.00;67.80
13721;DHT22;6932;51.438;5.470;2023-05-14T17:56:54;26.00;68.30
13721;DHT22;6932;51.438;5.470;2023-05-14T17:59:20;25.90;68.50
13721;DHT22;6932;51.438;5.470;2023-05-14T18:01:46;25.90;68.80
13721;DHT22;6932;51.438;5.470;2023-05-14T18:04:12;25.80;68.70
13721;DHT22;6932;51.438;5.470;2023-05-14T18:06:39;25.70;68.60
13721;DHT22;6932;51.438;5.470;2023-05-14T18:09:04;25.70;68.70
13721;DHT22;6932;51.438;5.470;2023-05-14T18:11:58;25.60;68.80
13721;DHT22;6932;51.438;5.470;2023-05-14T18:14:24;25.50;68.80
13721;DHT22;6932;51.438;5.470;2023-05-14T18:16:49;25.50;69.30
13721;DHT22;6932;51.438;5.470;2023-05-14T18:19:15;25.30;69.50
13721;DHT22;6932;51.438;5.470;2023-05-14T18:21:41;25.30;69.80
13721;DHT22;6932;51.438;5.470;2023-05-14T18:24:07;25.20;70.10
13721;DHT22;6932;51.438;5.470;2023-05-14T18:26:33;25.10;70.40
13721;DHT22;6932;51.438;5.470;2023-05-14T18:28:59;25.10;70.70
13721;DHT22;6932;51.438;5.470;2023-05-14T18:31:25;25.00;70.90
13721;DHT22;6932;51.438;5.470;2023-05-14T18:33:52;24.90;71.20
13721;DHT22;6932;51.438;5.470;2023-05-14T18:36:17;24.90;71.40
13721;DHT22;6932;51.438;5.470;2023-05-14T18:38:44;24.80;71.60
13721;DHT22;6932;51.438;5.470;2023-05-14T18:41:09;24.70;71.60
13721;DHT22;6932;51.438;5.470;2023-05-14T18:43:35;24.70;71.90
13721;DHT22;6932;51.438;5.470;2023-05-14T18:46:01;24.60;72.20
13721;DHT22;6932;51.438;5.470;2023-05-14T18:48:27;24.50;72.30
13721;DHT22;6932;51.438;5.470;2023-05-14T18:50:52;24.50;72.40
13721;DHT22;6932;51.438;5.470;2023-05-14T18:53:18;24.40;73.10
13721;DHT22;6932;51.438;5.470;2023-05-14T18:55:44;24.40;72.60
13721;DHT22;6932;51.438;5.470;2023-05-14T18:58:10;24.30;72.60
13721;DHT22;6932;51.438;5.470;2023-05-14T19:00:36;24.30;72.60
13721;DHT22;6932;51.438;5.470;2023-05-14T19:03:02;24.20;72.80
13721;DHT22;6932;51.438;5.470;2023-05-14T19:05:27;24.10;72.90
13721;DHT22;6932;51.438;5.470;2023-05-14T19:07:53;24.10;73.10
13721;DHT22;6932;51.438;5.470;2023-05-14T19:10:19;24.00;73.10
13721;DHT22;6932;51.438;5.470;2023-05-14T19:12:45;23.90;73.10
13721;DHT22;6932;51.438;5.470;2023-05-14T19:15:12;23.80;73.20
13721;DHT22;6932;51.438;5.470;2023-05-14T19:17:37;23.80;73.40
13721;DHT22;6932;51.438;5.470;2023-05-14T19:20:04;23.70;74.20
13721;DHT22;6932;51.438;5.470;2023-05-14T19:22:32;23.60;73.60
13721;DHT22;6932;51.438;5.470;2023-05-14T19:24:58;23.50;73.70
13721;DHT22;6932;51.438;5.470;2023-05-14T19:27:23;23.50;74.00
13721;DHT22;6932;51.438;5.470;2023-05-14T19:29:50;23.40;74.10
13721;DHT22;6932;51.438;5.470;2023-05-14T19:32:16;23.40;74.30
13721;DHT22;6932;51.438;5.470;2023-05-14T19:34:42;23.30;74.40
13721;DHT22;6932;51.438;5.470;2023-05-14T19:44:30;23.10;74.70
13721;DHT22;6932;51.438;5.470;2023-05-14T19:46:56;23.00;75.20
13721;DHT22;6932;51.438;5.470;2023-05-14T19:49:22;22.90;75.40
13721;DHT22;6932;51.438;5.470;2023-05-14T19:51:47;22.90;75.60
13721;DHT22;6932;51.438;5.470;2023-05-14T19:54:13;22.80;75.60
13721;DHT22;6932;51.438;5.470;2023-05-14T19:56:39;22.80;75.80
13721;DHT22;6932;51.438;5.470;2023-05-14T19:59:05;22.70;76.00
13721;DHT22;6932;51.438;5.470;2023-05-14T20:05:21;22.60;76.10
13721;DHT22;6932;51.438;5.470;2023-05-14T20:07:46;22.60;76.30
13721;DHT22;6932;51.438;5.470;2023-05-14T20:10:13;22.50;76.40
13721;DHT22;6932;51.438;5.470;2023-05-14T20:12:39;22.50;76.60
13721;DHT22;6932;51.438;5.470;2023-05-14T20:15:05;22.40;76.60
13721;DHT22;6932;51.438;5.470;2023-05-14T20:17:31;22.40;76.80
13721;DHT22;6932;51.438;5.470;2023-05-14T20:19:56;22.40;76.90
13721;DHT22;6932;51.438;5.470;2023-05-14T20:22:22;22.30;77.00
13721;DHT22;6932;51.438;5.470;2023-05-14T20:36:00;22.20;77.20
13721;DHT22;6932;51.438;5.470;2023-05-14T20:38:28;22.10;77.40
13721;DHT22;6932;51.438;5.470;2023-05-14T20:40:55;22.00;77.60
13721;DHT22;6932;51.438;5.470;2023-05-14T20:43:21;22.00;77.80
13721;DHT22;6932;51.438;5.470;2023-05-14T20:45:47;22.00;78.00
13721;DHT22;6932;51.438;5.470;2023-05-14T20:48:13;21.90;78.20
13721;DHT22;6932;51.438;5.470;2023-05-14T20:50:41;21.90;78.40
13721;DHT22;6932;51.438;5.470;2023-05-14T20:53:07;21.90;78.40
13721;DHT22;6932;51.438;5.470;2023-05-14T21:10:26;21.60;78.60
13721;DHT22;6932;51.438;5.470;2023-05-14T21:12:51;21.60;78.80
13721;DHT22;6932;51.438;5.470;2023-05-14T21:15:17;21.60;79.00
13721;DHT22;6932;51.438;5.470;2023-05-14T21:17:43;21.50;79.20
13721;DHT22;6932;51.438;5.470;2023-05-14T21:20:09;21.50;79.90
13721;DHT22;6932;51.438;5.470;2023-05-14T21:22:37;21.40;79.30
13721;DHT22;6932;51.438;5.470;2023-05-14T21:25:03;21.40;79.30
13721;DHT22;6932;51.438;5.470;2023-05-14T21:27:29;21.30;79.40
13721;DHT22;6932;51.438;5.470;2023-05-14T21:44:48;21.10;79.80
13721;DHT22;6932;51.438;5.470;2023-05-14T21:47:14;21.10;80.00
13721;DHT22;6932;51.438;5.470;2023-05-14T21:49:40;21.00;80.20
13721;DHT22;6932;51.438;5.470;2023-05-14T21:52:06;21.00;80.30
13721;DHT22;6932;51.438;5.470;2023-05-14T21:54:32;20.90;80.40
13721;DHT22;6932;51.438;5.470;2023-05-14T21:56:58;20.90;80.40
13721;DHT22;6932;51.438;5.470;2023-05-14T21:59:24;20.90;80.50
13721;DHT22;6932;51.438;5.470;2023-05-14T22:01:49;20.90;80.60
13721;DHT22;6932;51.438;5.470;2023-05-14T22:07:56;20.80;80.70
13721;DHT22;6932;51.438;5.470;2023-05-14T22:10:22;20.80;80.70
13721;DHT22;6932;51.438;5.470;2023-05-14T22:12:47;20.80;81.00
13721;DHT22;6932;51.438;5.470;2023-05-14T22:15:13;20.80;81.10
13721;DHT22;6932;51.438;5.470;2023-05-14T22:17:39;20.70;81.10
13721;DHT22;6932;51.438;5.470;2023-05-14T22:20:06;20.70;81.20
13721;DHT22;6932;51.438;5.470;2023-05-14T22:22:33;20.70;81.30
13721;DHT22;6932;51.438;5.470;2023-05-14T22:28:08;20.60;81.10
13721;DHT22;6932;51.438;5.470;2023-05-14T22:30:33;20.60;81.20
13721;DHT22;6932;51.438;5.470;2023-05-14T22:32:59;20.60;81.20
13721;DHT22;6932;51.438;5.470;2023-05-14T22:35:25;20.60;82.00
13721;DHT22;6932;51.438;5.470;2023-05-14T22:37:51;20.50;81.30
13721;DHT22;6932;51.438;5.470;2023-05-14T22:40:16;20.50;81.40
13721;DHT22;6932;51.438;5.470;2023-05-14T22:42:42;20.50;81.40
13721;DHT22;6932;51.438;5.470;2023-05-14T22:45:08;20.50;81.50
13721;DHT22;6932;51.438;5.470;2023-05-14T22:47:34;20.40;81.40
13721;DHT22;6932;51.438;5.470;2023-05-14T22:50:00;20.40;81.40
13721;DHT22;6932;51.438;5.470;2023-05-14T22:52:25;20.40;81.50
13721;DHT22;6932;51.438;5.470;2023-05-14T22:54:51;20.30;81.50
13721;DHT22;6932;51.438;5.470;2023-05-14T22:57:17;20.30;81.50
13721;DHT22;6932;51.438;5.470;2023-05-14T22:59:43;20.20;81.60
13721;DHT22;6932;51.438;5.470;2023-05-14T23:05:50;20.20;81.70
13721;DHT22;6932;51.438;5.470;2023-05-14T23:08:16;20.20;81.80
13721;DHT22;6932;51.438;5.470;2023-05-14T23:10:42;20.10;81.90
13721;DHT22;6932;51.438;5.470;2023-05-14T23:13:07;20.10;82.10
13721;DHT22;6932;51.438;5.470;2023-05-14T23:15:33;20.00;82.00
13721;DHT22;6932;51.438;5.470;2023-05-14T23:17:59;20.00;82.20
13721;DHT22;6932;51.438;5.470;2023-05-14T23:24:06;19.90;82.20
13721;DHT22;6932;51.438;5.470;2023-05-14T23:26:32;19.90;82.10
13721;DHT22;6932;51.438;5.470;2023-05-14T23:28:57;19.90;82.20
13721;DHT22;6932;51.438;5.470;2023-05-14T23:31:23;19.90;82.30
13721;DHT22;6932;51.438;5.470;2023-05-14T23:33:49;19.90;82.30
13721;DHT22;6932;51.438;5.470;2023-05-14T23:36:15;19.80;82.20
13721;DHT22;6932;51.438;5.470;2023-05-14T23:38:40;19.80;82.30
13721;DHT22;6932;51.438;5.470;2023-05-14T23:44:48;19.70;82.30
13721;DHT22;6932;51.438;5.470;2023-05-14T23:47:14;19.80;82.40
13721;DHT22;6932;51.438;5.470;2023-05-14T23:49:40;19.70;82.40
13721;DHT22;6932;51.438;5.470;2023-05-14T23:52:06;19.70;82.50
13721;DHT22;6932;51.438;5.470;2023-05-14T23:54:32;19.70;82.50
13721;DHT22;6932;51.438;5.470;2023-05-14T23:56:57;19.60;83.10
13721;DHT22;6932;51.438;5.470;2023-05-14T23:59:23;19.60;82.50
